Wednesday, November 22, 2017, 12:56 PM GMT
Back to Local

CYQM, Moncton, N. B.

Location: , , Canada Lat: 46.117
Local Time: 12:56 PM GMT (12:56 GMT) Lon: -64.683
Time Zone: GMT Elev: 232 ft

Show me the last for .
Show Coded

Time T Td Feel RH Dir Speed Gust Alt SLP Vis Weather Sky Remarks
2017-11-22 12:00 39 37 35 93 200° 6 - 30.02 30.03 15 OVC220 None
2017-11-22 11:00 39 37 34 93 190° 8 - 30.00 30.01 15 FEW210 BKN260 None
2017-11-22 10:00 41 37 36 86 190° 7 - 29.99 30.01 15 FEW220 None
2017-11-22 09:00 39 37 34 93 170° 8 - 29.99 30.00 15 FEW220 None
2017-11-22 08:00 43 39 39 86 200° 6 - 30.00 30.01 15 FEW220 None
2017-11-22 07:00 41 39 36 93 180° 7 - 29.99 30.01 15 FEW220 None
2017-11-22 06:00 41 39 37 93 180° 6 - 29.98 29.99 15 FEW220 None
2017-11-22 05:00 43 39 38 86 190° 8 - 29.98 30.00 15 SCT220 None
2017-11-22 04:00 43 41 37 93 180° 12 - 29.98 29.99 15 FEW220 None
2017-11-22 03:00 43 39 37 86 180° 12 - 29.98 29.99 15 FEW220 None
2017-11-22 02:00 39 37 32 93 180° 10 - 29.98 29.99 15 FEW220 None
2017-11-22 01:00 37 34 32 86 180° 7 - 29.98 30.00 15 SCT220 None
2017-11-22 00:26 36 32 29 86 160° 9 - 29.99 30.01 15 FEW240 None
2017-11-22 00:00 37 32 29 80 170° 13 - 29.99 30.01 15 FEW240 None
2017-11-21 23:00 36 30 27 80 160° 13 - 30.00 30.02 15 FEW240 None
2017-11-21 22:00 34 28 26 80 160° 9 - 30.01 30.03 15 FEW026 FEW240 None
2017-11-21 21:00 34 21 30 59 150° 5 - 30.03 30.04 15 BKN026 None
2017-11-21 20:00 34 16 31 47 200° 3 - 30.03 30.04 15 FEW090 FEW240 None
2017-11-21 19:00 34 14 29 43 240° 6 - 30.03 30.05 14 FEW240 None
2017-11-21 18:00 32 12 24 43 220° 10 - 30.03 30.05 15 FEW240 None
2017-11-21 17:00 28 9 18 42 220° 13 - 30.04 30.06 15 FEW240 None
2017-11-21 16:00 27 9 15 45 220° 15 - 30.06 30.07 15 FEW130 BKN240 None
2017-11-21 15:00 23 9 7 53 230° 16 24 30.05 30.07 15 FEW130 FEW240 None
2017-11-21 14:00 21 9 5 57 240° 14 23 30.04 30.06 15 FEW240 None
2017-11-21 13:00 18 7 2 61 230° 18 - 30.04 30.06 15 FEW240 None

Support USWX by starting your Amazon purchase here.